sensor_id;sensor_type;location;lat;lon;timestamp;P1;durP1;ratioP1;P2;durP2;ratioP2
34565;SDS011;20803;42.676;26.348;2022-11-21T00:01:18;30.67;;;7.70;;
34565;SDS011;20803;42.676;26.348;2022-11-21T00:03:48;24.20;;;7.13;;
34565;SDS011;20803;42.676;26.348;2022-11-21T00:06:14;31.70;;;7.27;;
34565;SDS011;20803;42.676;26.348;2022-11-21T00:08:40;27.70;;;6.23;;
34565;SDS011;20803;42.676;26.348;2022-11-21T00:11:06;29.23;;;6.77;;
34565;SDS011;20803;42.676;26.348;2022-11-21T00:13:31;26.37;;;6.90;;
34565;SDS011;20803;42.676;26.348;2022-11-21T00:16:02;25.23;;;6.80;;
34565;SDS011;20803;42.676;26.348;2022-11-21T00:18:32;25.80;;;7.43;;
34565;SDS011;20803;42.676;26.348;2022-11-21T00:21:02;25.60;;;7.57;;
34565;SDS011;20803;42.676;26.348;2022-11-21T00:23:38;31.73;;;8.77;;
34565;SDS011;20803;42.676;26.348;2022-11-21T00:26:04;33.97;;;7.57;;
34565;SDS011;20803;42.676;26.348;2022-11-21T00:28:30;28.23;;;8.00;;
34565;SDS011;20803;42.676;26.348;2022-11-21T00:30:56;26.07;;;6.10;;
34565;SDS011;20803;42.676;26.348;2022-11-21T00:33:21;28.10;;;6.73;;
34565;SDS011;20803;42.676;26.348;2022-11-21T00:35:47;36.10;;;7.43;;
34565;SDS011;20803;42.676;26.348;2022-11-21T00:38:13;18.70;;;5.83;;
34565;SDS011;20803;42.676;26.348;2022-11-21T00:40:41;26.00;;;6.73;;
34565;SDS011;20803;42.676;26.348;2022-11-21T00:43:07;26.03;;;5.87;;
34565;SDS011;20803;42.676;26.348;2022-11-21T00:45:32;26.13;;;7.30;;
34565;SDS011;20803;42.676;26.348;2022-11-21T00:47:58;23.33;;;6.10;;
34565;SDS011;20803;42.676;26.348;2022-11-21T00:50:23;26.03;;;6.47;;
34565;SDS011;20803;42.676;26.348;2022-11-21T00:52:48;39.50;;;6.97;;
34565;SDS011;20803;42.676;26.348;2022-11-21T00:55:19;22.77;;;6.33;;
34565;SDS011;20803;42.676;26.348;2022-11-21T00:57:44;30.23;;;7.30;;
34565;SDS011;20803;42.676;26.348;2022-11-21T01:00:10;32.23;;;7.23;;
34565;SDS011;20803;42.676;26.348;2022-11-21T01:02:36;27.90;;;5.93;;
34565;SDS011;20803;42.676;26.348;2022-11-21T01:05:01;26.23;;;6.93;;
34565;SDS011;20803;42.676;26.348;2022-11-21T01:07:26;25.70;;;6.10;;
34565;SDS011;20803;42.676;26.348;2022-11-21T01:09:52;23.27;;;5.50;;
34565;SDS011;20803;42.676;26.348;2022-11-21T01:12:17;30.00;;;8.20;;
34565;SDS011;20803;42.676;26.348;2022-11-21T01:14:43;29.07;;;6.57;;
34565;SDS011;20803;42.676;26.348;2022-11-21T01:17:08;23.77;;;6.60;;
34565;SDS011;20803;42.676;26.348;2022-11-21T01:19:34;23.57;;;5.67;;
34565;SDS011;20803;42.676;26.348;2022-11-21T01:21:59;24.73;;;7.07;;
34565;SDS011;20803;42.676;26.348;2022-11-21T01:24:24;21.47;;;6.87;;
34565;SDS011;20803;42.676;26.348;2022-11-21T01:26:50;27.37;;;6.97;;
34565;SDS011;20803;42.676;26.348;2022-11-21T01:29:17;22.03;;;6.30;;
34565;SDS011;20803;42.676;26.348;2022-11-21T01:31:43;24.67;;;6.27;;
34565;SDS011;20803;42.676;26.348;2022-11-21T01:34:08;25.30;;;5.63;;
34565;SDS011;20803;42.676;26.348;2022-11-21T01:36:34;23.70;;;6.20;;
34565;SDS011;20803;42.676;26.348;2022-11-21T01:39:00;23.53;;;6.87;;
34565;SDS011;20803;42.676;26.348;2022-11-21T01:41:31;20.87;;;5.87;;
34565;SDS011;20803;42.676;26.348;2022-11-21T01:44:05;19.40;;;6.00;;
34565;SDS011;20803;42.676;26.348;2022-11-21T01:46:45;25.27;;;5.90;;
34565;SDS011;20803;42.676;26.348;2022-11-21T01:49:13;17.90;;;5.73;;
34565;SDS011;20803;42.676;26.348;2022-11-21T01:54:30;38.93;;;7.40;;
34565;SDS011;20803;42.676;26.348;2022-11-21T02:02:26;30.53;;;5.83;;
34565;SDS011;20803;42.676;26.348;2022-11-21T02:04:54;27.63;;;6.10;;
34565;SDS011;20803;42.676;26.348;2022-11-21T02:07:21;25.17;;;6.60;;
34565;SDS011;20803;42.676;26.348;2022-11-21T02:09:50;25.80;;;6.50;;
34565;SDS011;20803;42.676;26.348;2022-11-21T02:12:21;18.07;;;5.73;;
34565;SDS011;20803;42.676;26.348;2022-11-21T02:14:51;22.57;;;5.93;;
34565;SDS011;20803;42.676;26.348;2022-11-21T02:17:18;21.00;;;6.37;;
34565;SDS011;20803;42.676;26.348;2022-11-21T02:25:29;30.77;;;6.77;;
34565;SDS011;20803;42.676;26.348;2022-11-21T02:28:15;30.80;;;6.37;;
34565;SDS011;20803;42.676;26.348;2022-11-21T02:30:44;25.47;;;6.30;;
34565;SDS011;20803;42.676;26.348;2022-11-21T02:33:10;24.97;;;5.87;;
34565;SDS011;20803;42.676;26.348;2022-11-21T02:35:37;28.07;;;5.93;;
34565;SDS011;20803;42.676;26.348;2022-11-21T02:38:04;21.53;;;6.63;;
34565;SDS011;20803;42.676;26.348;2022-11-21T02:40:39;29.40;;;5.77;;
34565;SDS011;20803;42.676;26.348;2022-11-21T02:43:24;33.77;;;6.47;;
34565;SDS011;20803;42.676;26.348;2022-11-21T02:45:53;18.43;;;6.53;;
34565;SDS011;20803;42.676;26.348;2022-11-21T02:48:20;19.87;;;5.97;;
34565;SDS011;20803;42.676;26.348;2022-11-21T02:50:45;22.17;;;6.37;;
34565;SDS011;20803;42.676;26.348;2022-11-21T02:53:12;25.37;;;6.67;;
34565;SDS011;20803;42.676;26.348;2022-11-21T02:55:40;23.43;;;5.87;;
34565;SDS011;20803;42.676;26.348;2022-11-21T02:58:06;24.43;;;6.57;;
34565;SDS011;20803;42.676;26.348;2022-11-21T03:00:32;24.63;;;6.83;;
34565;SDS011;20803;42.676;26.348;2022-11-21T03:02:58;15.17;;;6.27;;
34565;SDS011;20803;42.676;26.348;2022-11-21T03:05:24;29.63;;;6.63;;
34565;SDS011;20803;42.676;26.348;2022-11-21T03:07:49;27.17;;;6.30;;
34565;SDS011;20803;42.676;26.348;2022-11-21T03:10:15;27.97;;;6.70;;
34565;SDS011;20803;42.676;26.348;2022-11-21T03:12:41;24.17;;;6.47;;
34565;SDS011;20803;42.676;26.348;2022-11-21T03:15:08;28.10;;;7.20;;
34565;SDS011;20803;42.676;26.348;2022-11-21T03:17:35;26.40;;;5.70;;
34565;SDS011;20803;42.676;26.348;2022-11-21T03:20:01;27.13;;;6.77;;
34565;SDS011;20803;42.676;26.348;2022-11-21T03:22:27;23.30;;;6.10;;
34565;SDS011;20803;42.676;26.348;2022-11-21T03:24:53;30.30;;;7.37;;
34565;SDS011;20803;42.676;26.348;2022-11-21T03:27:18;33.57;;;6.57;;
34565;SDS011;20803;42.676;26.348;2022-11-21T03:29:43;26.17;;;6.37;;
34565;SDS011;20803;42.676;26.348;2022-11-21T03:32:09;22.73;;;5.80;;
34565;SDS011;20803;42.676;26.348;2022-11-21T03:34:35;17.60;;;6.30;;
34565;SDS011;20803;42.676;26.348;2022-11-21T03:37:00;25.20;;;7.10;;
34565;SDS011;20803;42.676;26.348;2022-11-21T03:39:25;27.70;;;7.07;;
34565;SDS011;20803;42.676;26.348;2022-11-21T03:41:51;29.17;;;6.57;;
34565;SDS011;20803;42.676;26.348;2022-11-21T03:44:16;24.47;;;6.37;;
34565;SDS011;20803;42.676;26.348;2022-11-21T03:46:43;29.97;;;7.33;;
34565;SDS011;20803;42.676;26.348;2022-11-21T03:49:10;30.73;;;6.73;;
34565;SDS011;20803;42.676;26.348;2022-11-21T03:51:36;37.50;;;7.23;;
34565;SDS011;20803;42.676;26.348;2022-11-21T03:54:02;25.17;;;7.80;;
34565;SDS011;20803;42.676;26.348;2022-11-21T03:56:28;28.00;;;6.93;;
34565;SDS011;20803;42.676;26.348;2022-11-21T03:58:54;33.07;;;8.10;;
34565;SDS011;20803;42.676;26.348;2022-11-21T04:01:20;26.00;;;7.50;;
34565;SDS011;20803;42.676;26.348;2022-11-21T04:03:46;22.50;;;6.33;;
34565;SDS011;20803;42.676;26.348;2022-11-21T04:06:13;30.77;;;8.83;;
34565;SDS011;20803;42.676;26.348;2022-11-21T04:08:39;39.00;;;8.27;;
34565;SDS011;20803;42.676;26.348;2022-11-21T04:11:05;32.20;;;7.80;;
34565;SDS011;20803;42.676;26.348;2022-11-21T04:13:31;32.43;;;7.40;;
34565;SDS011;20803;42.676;26.348;2022-11-21T04:15:57;26.67;;;6.80;;
34565;SDS011;20803;42.676;26.348;2022-11-21T04:18:22;27.57;;;7.20;;
34565;SDS011;20803;42.676;26.348;2022-11-21T04:20:47;32.27;;;8.50;;
34565;SDS011;20803;42.676;26.348;2022-11-21T04:23:13;30.20;;;7.93;;
34565;SDS011;20803;42.676;26.348;2022-11-21T04:25:39;33.83;;;8.60;;
34565;SDS011;20803;42.676;26.348;2022-11-21T04:28:05;28.10;;;8.03;;
34565;SDS011;20803;42.676;26.348;2022-11-21T04:30:32;22.57;;;8.03;;
34565;SDS011;20803;42.676;26.348;2022-11-21T04:32:58;34.30;;;7.83;;
34565;SDS011;20803;42.676;26.348;2022-11-21T04:35:23;29.07;;;7.93;;
34565;SDS011;20803;42.676;26.348;2022-11-21T04:37:50;30.57;;;7.53;;
34565;SDS011;20803;42.676;26.348;2022-11-21T04:40:16;34.03;;;7.47;;
34565;SDS011;20803;42.676;26.348;2022-11-21T04:42:45;24.03;;;7.47;;
34565;SDS011;20803;42.676;26.348;2022-11-21T04:45:12;34.13;;;8.50;;
34565;SDS011;20803;42.676;26.348;2022-11-21T04:47:39;33.27;;;7.77;;
34565;SDS011;20803;42.676;26.348;2022-11-21T04:50:06;26.33;;;8.77;;
34565;SDS011;20803;42.676;26.348;2022-11-21T04:52:33;22.63;;;7.40;;
34565;SDS011;20803;42.676;26.348;2022-11-21T04:54:59;32.80;;;10.07;;
34565;SDS011;20803;42.676;26.348;2022-11-21T04:57:26;21.43;;;7.23;;
34565;SDS011;20803;42.676;26.348;2022-11-21T04:59:52;24.70;;;7.47;;
34565;SDS011;20803;42.676;26.348;2022-11-21T05:02:18;27.73;;;7.30;;
34565;SDS011;20803;42.676;26.348;2022-11-21T05:04:43;25.83;;;6.90;;
34565;SDS011;20803;42.676;26.348;2022-11-21T05:07:08;28.17;;;6.87;;
34565;SDS011;20803;42.676;26.348;2022-11-21T05:09:34;26.77;;;7.20;;
34565;SDS011;20803;42.676;26.348;2022-11-21T05:11:59;24.17;;;7.60;;
34565;SDS011;20803;42.676;26.348;2022-11-21T05:14:43;27.60;;;8.10;;
34565;SDS011;20803;42.676;26.348;2022-11-21T05:17:09;28.23;;;7.97;;
34565;SDS011;20803;42.676;26.348;2022-11-21T05:19:35;26.53;;;7.93;;
34565;SDS011;20803;42.676;26.348;2022-11-21T05:22:00;31.27;;;7.50;;
34565;SDS011;20803;42.676;26.348;2022-11-21T05:24:25;24.73;;;6.83;;
34565;SDS011;20803;42.676;26.348;2022-11-21T05:26:51;32.70;;;7.87;;
34565;SDS011;20803;42.676;26.348;2022-11-21T05:29:18;33.20;;;7.63;;
34565;SDS011;20803;42.676;26.348;2022-11-21T05:31:43;31.10;;;7.97;;
34565;SDS011;20803;42.676;26.348;2022-11-21T05:34:08;30.93;;;8.13;;
34565;SDS011;20803;42.676;26.348;2022-11-21T05:36:34;33.80;;;9.07;;
34565;SDS011;20803;42.676;26.348;2022-11-21T05:38:59;24.90;;;8.33;;
34565;SDS011;20803;42.676;26.348;2022-11-21T05:41:25;33.13;;;7.70;;
34565;SDS011;20803;42.676;26.348;2022-11-21T05:43:50;31.40;;;8.67;;
34565;SDS011;20803;42.676;26.348;2022-11-21T05:46:20;28.37;;;7.17;;
34565;SDS011;20803;42.676;26.348;2022-11-21T05:48:48;25.17;;;7.00;;
34565;SDS011;20803;42.676;26.348;2022-11-21T05:51:14;31.47;;;7.67;;
34565;SDS011;20803;42.676;26.348;2022-11-21T05:53:41;32.50;;;7.37;;
34565;SDS011;20803;42.676;26.348;2022-11-21T05:56:08;28.60;;;8.03;;
34565;SDS011;20803;42.676;26.348;2022-11-21T05:58:35;32.77;;;9.93;;
34565;SDS011;20803;42.676;26.348;2022-11-21T06:01:00;23.40;;;7.73;;
34565;SDS011;20803;42.676;26.348;2022-11-21T06:03:27;22.47;;;8.60;;
34565;SDS011;20803;42.676;26.348;2022-11-21T06:08:37;27.83;;;9.63;;
34565;SDS011;20803;42.676;26.348;2022-11-21T06:11:05;28.27;;;8.23;;
34565;SDS011;20803;42.676;26.348;2022-11-21T06:13:32;36.87;;;7.83;;
34565;SDS011;20803;42.676;26.348;2022-11-21T06:16:18;23.97;;;7.80;;
34565;SDS011;20803;42.676;26.348;2022-11-21T06:18:48;29.43;;;7.03;;
34565;SDS011;20803;42.676;26.348;2022-11-21T06:21:17;31.20;;;8.70;;
34565;SDS011;20803;42.676;26.348;2022-11-21T06:23:44;25.70;;;8.47;;
34565;SDS011;20803;42.676;26.348;2022-11-21T06:26:11;34.73;;;9.30;;
34565;SDS011;20803;42.676;26.348;2022-11-21T06:28:38;32.37;;;8.70;;
34565;SDS011;20803;42.676;26.348;2022-11-21T06:31:05;27.23;;;8.50;;
34565;SDS011;20803;42.676;26.348;2022-11-21T06:33:36;30.73;;;8.30;;
34565;SDS011;20803;42.676;26.348;2022-11-21T06:36:03;25.93;;;7.10;;
34565;SDS011;20803;42.676;26.348;2022-11-21T06:38:30;27.73;;;6.37;;
34565;SDS011;20803;42.676;26.348;2022-11-21T06:40:56;32.87;;;7.53;;
34565;SDS011;20803;42.676;26.348;2022-11-21T06:43:21;26.33;;;6.33;;
34565;SDS011;20803;42.676;26.348;2022-11-21T06:45:46;19.63;;;6.90;;
34565;SDS011;20803;42.676;26.348;2022-11-21T06:48:12;30.83;;;7.33;;
34565;SDS011;20803;42.676;26.348;2022-11-21T06:50:37;25.17;;;7.17;;
34565;SDS011;20803;42.676;26.348;2022-11-21T06:53:03;24.73;;;7.33;;
34565;SDS011;20803;42.676;26.348;2022-11-21T06:55:29;25.10;;;7.23;;
34565;SDS011;20803;42.676;26.348;2022-11-21T06:57:58;25.57;;;8.20;;
34565;SDS011;20803;42.676;26.348;2022-11-21T07:00:26;29.07;;;7.50;;
34565;SDS011;20803;42.676;26.348;2022-11-21T07:02:52;28.43;;;8.20;;
34565;SDS011;20803;42.676;26.348;2022-11-21T07:05:18;24.60;;;6.33;;
34565;SDS011;20803;42.676;26.348;2022-11-21T07:07:43;26.47;;;7.27;;
34565;SDS011;20803;42.676;26.348;2022-11-21T07:10:09;28.57;;;7.23;;
34565;SDS011;20803;42.676;26.348;2022-11-21T07:12:34;28.33;;;8.53;;
34565;SDS011;20803;42.676;26.348;2022-11-21T07:15:19;30.43;;;7.50;;
34565;SDS011;20803;42.676;26.348;2022-11-21T07:17:44;27.57;;;8.67;;
34565;SDS011;20803;42.676;26.348;2022-11-21T07:20:10;38.90;;;11.47;;
34565;SDS011;20803;42.676;26.348;2022-11-21T07:22:36;28.33;;;8.33;;
34565;SDS011;20803;42.676;26.348;2022-11-21T07:25:01;28.83;;;6.53;;
34565;SDS011;20803;42.676;26.348;2022-11-21T07:27:26;37.17;;;7.60;;
34565;SDS011;20803;42.676;26.348;2022-11-21T07:29:52;29.67;;;8.60;;
34565;SDS011;20803;42.676;26.348;2022-11-21T07:32:17;23.37;;;8.30;;
34565;SDS011;20803;42.676;26.348;2022-11-21T07:34:43;32.07;;;9.03;;
34565;SDS011;20803;42.676;26.348;2022-11-21T07:37:08;37.13;;;9.70;;
34565;SDS011;20803;42.676;26.348;2022-11-21T07:39:33;37.50;;;9.30;;
34565;SDS011;20803;42.676;26.348;2022-11-21T07:41:59;29.83;;;8.47;;
34565;SDS011;20803;42.676;26.348;2022-11-21T07:44:24;23.60;;;7.53;;
34565;SDS011;20803;42.676;26.348;2022-11-21T07:46:52;30.27;;;7.07;;
34565;SDS011;20803;42.676;26.348;2022-11-21T07:49:19;31.73;;;7.03;;
34565;SDS011;20803;42.676;26.348;2022-11-21T07:51:44;29.27;;;8.10;;
34565;SDS011;20803;42.676;26.348;2022-11-21T07:54:10;27.80;;;6.60;;
34565;SDS011;20803;42.676;26.348;2022-11-21T07:56:35;30.20;;;9.97;;
34565;SDS011;20803;42.676;26.348;2022-11-21T07:59:00;25.67;;;9.43;;
34565;SDS011;20803;42.676;26.348;2022-11-21T08:01:26;24.23;;;7.43;;
34565;SDS011;20803;42.676;26.348;2022-11-21T08:03:51;29.37;;;7.50;;
34565;SDS011;20803;42.676;26.348;2022-11-21T08:06:17;25.40;;;7.63;;
34565;SDS011;20803;42.676;26.348;2022-11-21T08:08:42;21.73;;;5.53;;
34565;SDS011;20803;42.676;26.348;2022-11-21T08:11:08;19.50;;;5.40;;
34565;SDS011;20803;42.676;26.348;2022-11-21T08:13:34;21.57;;;5.17;;
34565;SDS011;20803;42.676;26.348;2022-11-21T08:16:01;18.43;;;4.40;;
34565;SDS011;20803;42.676;26.348;2022-11-21T08:18:29;22.17;;;4.83;;
34565;SDS011;20803;42.676;26.348;2022-11-21T08:20:55;21.67;;;5.00;;
34565;SDS011;20803;42.676;26.348;2022-11-21T08:23:20;21.00;;;5.17;;
34565;SDS011;20803;42.676;26.348;2022-11-21T08:25:46;15.47;;;4.23;;
34565;SDS011;20803;42.676;26.348;2022-11-21T08:28:11;16.30;;;4.07;;
34565;SDS011;20803;42.676;26.348;2022-11-21T08:30:37;14.70;;;4.23;;
34565;SDS011;20803;42.676;26.348;2022-11-21T08:33:04;25.47;;;6.20;;
34565;SDS011;20803;42.676;26.348;2022-11-21T08:35:30;14.13;;;4.40;;
34565;SDS011;20803;42.676;26.348;2022-11-21T08:37:56;22.00;;;5.20;;
34565;SDS011;20803;42.676;26.348;2022-11-21T08:40:25;19.47;;;5.73;;
34565;SDS011;20803;42.676;26.348;2022-11-21T08:43:08;19.40;;;4.40;;
34565;SDS011;20803;42.676;26.348;2022-11-21T08:45:34;19.60;;;6.17;;
34565;SDS011;20803;42.676;26.348;2022-11-21T08:48:01;18.33;;;4.87;;
34565;SDS011;20803;42.676;26.348;2022-11-21T08:50:26;13.00;;;4.63;;
34565;SDS011;20803;42.676;26.348;2022-11-21T08:52:52;11.40;;;4.20;;
34565;SDS011;20803;42.676;26.348;2022-11-21T08:55:23;17.13;;;3.60;;
34565;SDS011;20803;42.676;26.348;2022-11-21T08:57:48;12.90;;;4.03;;
34565;SDS011;20803;42.676;26.348;2022-11-21T09:00:14;15.17;;;4.00;;
34565;SDS011;20803;42.676;26.348;2022-11-21T09:02:39;14.40;;;3.20;;
34565;SDS011;20803;42.676;26.348;2022-11-21T09:05:05;14.70;;;3.33;;
34565;SDS011;20803;42.676;26.348;2022-11-21T09:07:31;21.63;;;3.80;;
34565;SDS011;20803;42.676;26.348;2022-11-21T09:09:56;21.97;;;3.87;;
34565;SDS011;20803;42.676;26.348;2022-11-21T09:12:22;20.10;;;3.50;;
34565;SDS011;20803;42.676;26.348;2022-11-21T09:14:47;21.00;;;4.30;;
34565;SDS011;20803;42.676;26.348;2022-11-21T09:17:31;15.33;;;4.07;;
34565;SDS011;20803;42.676;26.348;2022-11-21T09:20:15;10.33;;;3.30;;
34565;SDS011;20803;42.676;26.348;2022-11-21T09:22:41;22.07;;;4.93;;
34565;SDS011;20803;42.676;26.348;2022-11-21T09:25:06;16.80;;;4.27;;
34565;SDS011;20803;42.676;26.348;2022-11-21T09:27:32;13.53;;;3.60;;
34565;SDS011;20803;42.676;26.348;2022-11-21T09:29:57;16.27;;;4.20;;
34565;SDS011;20803;42.676;26.348;2022-11-21T09:32:23;18.20;;;3.70;;
34565;SDS011;20803;42.676;26.348;2022-11-21T09:34:48;8.90;;;2.63;;
34565;SDS011;20803;42.676;26.348;2022-11-21T09:37:14;15.77;;;3.43;;
34565;SDS011;20803;42.676;26.348;2022-11-21T09:39:39;16.60;;;3.80;;
34565;SDS011;20803;42.676;26.348;2022-11-21T09:45:00;13.37;;;3.70;;
34565;SDS011;20803;42.676;26.348;2022-11-21T09:47:44;7.40;;;2.00;;
34565;SDS011;20803;42.676;26.348;2022-11-21T09:55:44;17.87;;;3.40;;
34565;SDS011;20803;42.676;26.348;2022-11-21T10:00:49;11.70;;;2.30;;
34565;SDS011;20803;42.676;26.348;2022-11-21T10:03:15;7.53;;;2.03;;
34565;SDS011;20803;42.676;26.348;2022-11-21T10:05:44;13.30;;;4.07;;
34565;SDS011;20803;42.676;26.348;2022-11-21T10:08:20;14.37;;;4.03;;
34565;SDS011;20803;42.676;26.348;2022-11-21T10:14:36;8.73;;;3.10;;
34565;SDS011;20803;42.676;26.348;2022-11-21T10:25:39;15.93;;;3.83;;
34565;SDS011;20803;42.676;26.348;2022-11-21T10:30:58;10.13;;;2.43;;
34565;SDS011;20803;42.676;26.348;2022-11-21T10:33:29;11.10;;;2.33;;
34565;SDS011;20803;42.676;26.348;2022-11-21T10:36:06;12.63;;;2.07;;
34565;SDS011;20803;42.676;26.348;2022-11-21T10:38:48;7.60;;;2.30;;
34565;SDS011;20803;42.676;26.348;2022-11-21T10:41:16;4.67;;;1.73;;
34565;SDS011;20803;42.676;26.348;2022-11-21T10:47:10;12.13;;;2.40;;
34565;SDS011;20803;42.676;26.348;2022-11-21T10:49:36;9.40;;;2.50;;
34565;SDS011;20803;42.676;26.348;2022-11-21T10:52:06;10.23;;;2.00;;
34565;SDS011;20803;42.676;26.348;2022-11-21T10:57:26;4.43;;;1.90;;
34565;SDS011;20803;42.676;26.348;2022-11-21T10:59:57;4.83;;;1.53;;
34565;SDS011;20803;42.676;26.348;2022-11-21T11:02:25;5.63;;;1.90;;
34565;SDS011;20803;42.676;26.348;2022-11-21T11:10:35;8.57;;;2.73;;
34565;SDS011;20803;42.676;26.348;2022-11-21T11:13:02;5.10;;;2.10;;
34565;SDS011;20803;42.676;26.348;2022-11-21T11:16:02;6.03;;;2.13;;
34565;SDS011;20803;42.676;26.348;2022-11-21T11:18:30;4.47;;;2.10;;
34565;SDS011;20803;42.676;26.348;2022-11-21T11:21:08;2.60;;;1.30;;
34565;SDS011;20803;42.676;26.348;2022-11-21T11:23:36;6.53;;;1.63;;
34565;SDS011;20803;42.676;26.348;2022-11-21T11:26:01;4.67;;;1.67;;
34565;SDS011;20803;42.676;26.348;2022-11-21T11:28:34;4.77;;;1.70;;
34565;SDS011;20803;42.676;26.348;2022-11-21T11:31:00;6.03;;;1.57;;
34565;SDS011;20803;42.676;26.348;2022-11-21T11:36:12;7.37;;;1.70;;
34565;SDS011;20803;42.676;26.348;2022-11-21T11:38:42;4.77;;;1.63;;
34565;SDS011;20803;42.676;26.348;2022-11-21T11:47:54;11.40;;;3.10;;
34565;SDS011;20803;42.676;26.348;2022-11-21T11:50:26;20.27;;;5.57;;
34565;SDS011;20803;42.676;26.348;2022-11-21T11:58:16;12.43;;;3.90;;
34565;SDS011;20803;42.676;26.348;2022-11-21T12:00:45;9.67;;;3.43;;
34565;SDS011;20803;42.676;26.348;2022-11-21T12:06:14;18.57;;;4.53;;
34565;SDS011;20803;42.676;26.348;2022-11-21T12:11:18;10.50;;;3.70;;
34565;SDS011;20803;42.676;26.348;2022-11-21T12:14:12;12.83;;;3.13;;
34565;SDS011;20803;42.676;26.348;2022-11-21T12:17:02;9.30;;;2.83;;
34565;SDS011;20803;42.676;26.348;2022-11-21T12:19:30;3.63;;;1.50;;
34565;SDS011;20803;42.676;26.348;2022-11-21T12:21:58;7.33;;;1.70;;
34565;SDS011;20803;42.676;26.348;2022-11-21T12:24:23;4.53;;;2.10;;
34565;SDS011;20803;42.676;26.348;2022-11-21T12:26:58;7.67;;;2.33;;
34565;SDS011;20803;42.676;26.348;2022-11-21T12:29:42;6.13;;;2.30;;
34565;SDS011;20803;42.676;26.348;2022-11-21T12:32:32;6.93;;;2.17;;
34565;SDS011;20803;42.676;26.348;2022-11-21T12:44:05;5.20;;;2.10;;
34565;SDS011;20803;42.676;26.348;2022-11-21T12:52:30;2.67;;;1.70;;
34565;SDS011;20803;42.676;26.348;2022-11-21T12:55:40;5.53;;;2.17;;
34565;SDS011;20803;42.676;26.348;2022-11-21T13:06:26;1.57;;;1.40;;
34565;SDS011;20803;42.676;26.348;2022-11-21T13:08:53;3.43;;;1.73;;
34565;SDS011;20803;42.676;26.348;2022-11-21T13:17:16;2.87;;;1.80;;
34565;SDS011;20803;42.676;26.348;2022-11-21T13:35:02;4.03;;;1.60;;
34565;SDS011;20803;42.676;26.348;2022-11-21T13:45:46;5.43;;;2.53;;
34565;SDS011;20803;42.676;26.348;2022-11-21T13:50:46;4.60;;;2.73;;
34565;SDS011;20803;42.676;26.348;2022-11-21T13:55:56;3.47;;;2.50;;
34565;SDS011;20803;42.676;26.348;2022-11-21T14:11:55;3.33;;;1.80;;
34565;SDS011;20803;42.676;26.348;2022-11-21T14:14:33;2.37;;;1.60;;
34565;SDS011;20803;42.676;26.348;2022-11-21T14:22:45;3.43;;;1.80;;
34565;SDS011;20803;42.676;26.348;2022-11-21T14:25:17;3.73;;;1.70;;
34565;SDS011;20803;42.676;26.348;2022-11-21T14:27:45;2.93;;;2.03;;
34565;SDS011;20803;42.676;26.348;2022-11-21T14:30:26;3.37;;;2.13;;
34565;SDS011;20803;42.676;26.348;2022-11-21T14:32:54;2.67;;;2.10;;
34565;SDS011;20803;42.676;26.348;2022-11-21T14:35:20;3.83;;;2.03;;
34565;SDS011;20803;42.676;26.348;2022-11-21T14:37:47;3.13;;;1.77;;
34565;SDS011;20803;42.676;26.348;2022-11-21T14:40:19;3.30;;;1.90;;
34565;SDS011;20803;42.676;26.348;2022-11-21T14:42:46;3.43;;;1.77;;
34565;SDS011;20803;42.676;26.348;2022-11-21T14:45:16;3.23;;;2.00;;
34565;SDS011;20803;42.676;26.348;2022-11-21T14:47:49;2.50;;;1.80;;
34565;SDS011;20803;42.676;26.348;2022-11-21T14:50:32;4.93;;;2.13;;
34565;SDS011;20803;42.676;26.348;2022-11-21T14:52:59;4.10;;;2.47;;
34565;SDS011;20803;42.676;26.348;2022-11-21T14:55:29;5.17;;;3.00;;
34565;SDS011;20803;42.676;26.348;2022-11-21T14:57:57;3.50;;;2.30;;
34565;SDS011;20803;42.676;26.348;2022-11-21T15:00:25;4.43;;;2.40;;
34565;SDS011;20803;42.676;26.348;2022-11-21T15:02:53;2.87;;;2.30;;
34565;SDS011;20803;42.676;26.348;2022-11-21T15:05:20;4.87;;;2.40;;
34565;SDS011;20803;42.676;26.348;2022-11-21T15:07:47;4.23;;;2.93;;
34565;SDS011;20803;42.676;26.348;2022-11-21T15:10:14;4.57;;;3.27;;
34565;SDS011;20803;42.676;26.348;2022-11-21T15:18:00;2.90;;;2.60;;
34565;SDS011;20803;42.676;26.348;2022-11-21T15:20:27;6.67;;;3.40;;
34565;SDS011;20803;42.676;26.348;2022-11-21T15:22:55;4.10;;;3.50;;
34565;SDS011;20803;42.676;26.348;2022-11-21T15:25:26;3.77;;;2.00;;
34565;SDS011;20803;42.676;26.348;2022-11-21T15:30:25;3.17;;;2.70;;
34565;SDS011;20803;42.676;26.348;2022-11-21T15:33:11;2.30;;;2.10;;
34565;SDS011;20803;42.676;26.348;2022-11-21T15:35:40;4.20;;;2.20;;
34565;SDS011;20803;42.676;26.348;2022-11-21T15:43:43;4.43;;;2.97;;
34565;SDS011;20803;42.676;26.348;2022-11-21T15:46:19;3.57;;;3.07;;
34565;SDS011;20803;42.676;26.348;2022-11-21T15:51:25;4.83;;;2.83;;
34565;SDS011;20803;42.676;26.348;2022-11-21T15:53:54;5.37;;;2.70;;
34565;SDS011;20803;42.676;26.348;2022-11-21T15:56:20;3.97;;;2.80;;
34565;SDS011;20803;42.676;26.348;2022-11-21T15:58:48;4.03;;;2.50;;
34565;SDS011;20803;42.676;26.348;2022-11-21T16:01:15;3.90;;;2.40;;
34565;SDS011;20803;42.676;26.348;2022-11-21T16:03:42;7.63;;;2.70;;
34565;SDS011;20803;42.676;26.348;2022-11-21T16:06:08;6.23;;;2.87;;
34565;SDS011;20803;42.676;26.348;2022-11-21T16:08:33;5.40;;;2.27;;
34565;SDS011;20803;42.676;26.348;2022-11-21T16:10:59;2.20;;;2.00;;
34565;SDS011;20803;42.676;26.348;2022-11-21T16:13:24;6.93;;;2.03;;
34565;SDS011;20803;42.676;26.348;2022-11-21T16:15:50;5.70;;;1.97;;
34565;SDS011;20803;42.676;26.348;2022-11-21T16:18:15;2.83;;;1.80;;
34565;SDS011;20803;42.676;26.348;2022-11-21T16:20:41;1.50;;;1.37;;
34565;SDS011;20803;42.676;26.348;2022-11-21T16:23:11;2.13;;;1.63;;
34565;SDS011;20803;42.676;26.348;2022-11-21T16:25:37;4.80;;;3.73;;
34565;SDS011;20803;42.676;26.348;2022-11-21T16:28:13;2.73;;;1.90;;
34565;SDS011;20803;42.676;26.348;2022-11-21T16:30:39;2.77;;;2.00;;
34565;SDS011;20803;42.676;26.348;2022-11-21T16:33:04;5.33;;;2.00;;
34565;SDS011;20803;42.676;26.348;2022-11-21T16:35:29;9.00;;;3.03;;
34565;SDS011;20803;42.676;26.348;2022-11-21T16:37:55;3.10;;;2.00;;
34565;SDS011;20803;42.676;26.348;2022-11-21T16:40:21;4.67;;;2.00;;
34565;SDS011;20803;42.676;26.348;2022-11-21T16:42:46;3.77;;;2.40;;
34565;SDS011;20803;42.676;26.348;2022-11-21T16:45:12;2.33;;;2.00;;
34565;SDS011;20803;42.676;26.348;2022-11-21T16:47:40;8.17;;;2.40;;
34565;SDS011;20803;42.676;26.348;2022-11-21T16:50:06;4.23;;;2.33;;
34565;SDS011;20803;42.676;26.348;2022-11-21T16:52:32;3.17;;;2.10;;
34565;SDS011;20803;42.676;26.348;2022-11-21T16:54:59;3.13;;;2.10;;
34565;SDS011;20803;42.676;26.348;2022-11-21T16:57:25;3.77;;;2.47;;
34565;SDS011;20803;42.676;26.348;2022-11-21T16:59:51;3.63;;;2.77;;
34565;SDS011;20803;42.676;26.348;2022-11-21T17:02:17;3.67;;;2.43;;
34565;SDS011;20803;42.676;26.348;2022-11-21T17:04:42;4.17;;;2.73;;
34565;SDS011;20803;42.676;26.348;2022-11-21T17:07:07;4.67;;;2.83;;
34565;SDS011;20803;42.676;26.348;2022-11-21T17:09:33;4.50;;;2.50;;
34565;SDS011;20803;42.676;26.348;2022-11-21T17:11:59;5.70;;;2.97;;
34565;SDS011;20803;42.676;26.348;2022-11-21T17:14:24;5.10;;;3.23;;
34565;SDS011;20803;42.676;26.348;2022-11-21T17:16:50;5.70;;;3.10;;
34565;SDS011;20803;42.676;26.348;2022-11-21T17:19:15;4.63;;;3.00;;